createdAt,value
2017-04-12T00:00:00.682Z,0
2017-04-12T00:01:22.817Z,0
2017-04-12T00:02:44.946Z,0
2017-04-12T00:04:07.408Z,0
2017-04-12T00:05:28.908Z,0
2017-04-12T00:06:51.352Z,0
2017-04-12T00:08:13.176Z,0
2017-04-12T00:09:35.029Z,0
2017-04-12T00:10:56.223Z,0
2017-04-12T00:12:18.321Z,0
2017-04-12T00:13:40.460Z,0
2017-04-12T00:15:01.966Z,0
2017-04-12T00:16:23.810Z,0
2017-04-12T00:17:46.259Z,0
2017-04-12T00:19:08.393Z,0
2017-04-12T00:20:30.558Z,0
2017-04-12T00:21:52.415Z,0
2017-04-12T00:23:14.870Z,0
2017-04-12T00:24:36.070Z,0
2017-04-12T00:25:57.957Z,0
2017-04-12T00:27:19.520Z,0
2017-04-12T00:28:41.351Z,0
2017-04-12T00:30:03.158Z,0
2017-04-12T00:31:25.008Z,0
2017-04-12T00:32:46.839Z,0
2017-04-12T00:34:08.969Z,0
2017-04-12T00:35:30.833Z,0
2017-04-12T00:36:53.309Z,0
2017-04-12T00:38:14.898Z,0
2017-04-12T00:39:37.313Z,0
2017-04-12T00:40:58.869Z,0
2017-04-12T00:42:20.700Z,0
2017-04-12T00:43:42.870Z,0
2017-04-12T00:45:05.260Z,0
2017-04-12T00:46:27.233Z,0
2017-04-12T00:47:48.838Z,0
2017-04-12T00:49:10.710Z,0
2017-04-12T00:50:32.790Z,0
2017-04-12T00:51:54.310Z,0
2017-04-12T00:53:16.200Z,0
2017-04-12T00:54:38.689Z,0
2017-04-12T00:56:01.447Z,0
2017-04-12T00:57:23.569Z,0
2017-04-12T00:58:45.079Z,0
2017-04-12T01:00:07.235Z,0
2017-04-12T01:01:29.350Z,0
2017-04-12T01:02:51.233Z,0
2017-04-12T01:04:13.421Z,0
2017-04-12T01:05:35.236Z,0
2017-04-12T01:06:57.340Z,0
2017-04-12T01:08:19.183Z,0
2017-04-12T01:09:40.678Z,0
2017-04-12T01:11:02.829Z,0
2017-04-12T01:12:24.591Z,0
2017-04-12T01:13:47.051Z,0
2017-04-12T01:15:09.185Z,0
2017-04-12T01:16:31.399Z,0
2017-04-12T01:17:53.159Z,0
2017-04-12T01:19:15.378Z,0
2017-04-12T01:20:37.271Z,0
2017-04-12T01:21:59.717Z,0
2017-04-12T01:23:21.260Z,0
2017-04-12T01:24:43.147Z,0
2017-04-12T01:26:05.640Z,0
2017-04-12T01:27:27.198Z,0
2017-04-12T01:28:49.657Z,0
2017-04-12T01:30:11.787Z,0
2017-04-12T01:31:34.237Z,0
2017-04-12T01:32:55.794Z,0
2017-04-12T01:34:18.533Z,0
2017-04-12T01:35:40.361Z,0
2017-04-12T01:37:02.156Z,0
2017-04-12T01:38:23.658Z,0
2017-04-12T01:39:45.777Z,0
2017-04-12T01:41:06.970Z,0
2017-04-12T01:42:28.812Z,0
2017-04-12T01:43:51.359Z,0
2017-04-12T01:45:13.776Z,0
2017-04-12T01:46:35.600Z,0
2017-04-12T01:47:56.876Z,0
2017-04-12T01:49:19.349Z,0
2017-04-12T01:50:41.837Z,0
2017-04-12T01:52:03.678Z,0
2017-04-12T01:53:25.499Z,0
2017-04-12T01:54:46.699Z,0
2017-04-12T01:56:09.337Z,0
2017-04-12T01:57:30.939Z,0
2017-04-12T01:58:52.860Z,0
2017-04-12T02:00:15.068Z,0
2017-04-12T02:01:37.762Z,0
2017-04-12T02:02:59.900Z,0
2017-04-12T02:04:21.426Z,0
2017-04-12T02:05:44.019Z,0
2017-04-12T02:07:06.398Z,0
2017-04-12T02:08:27.911Z,0
2017-04-12T02:09:50.529Z,0
2017-04-12T02:11:12.030Z,0
2017-04-12T02:12:34.756Z,0
2017-04-12T02:13:56.560Z,0
2017-04-12T02:15:18.392Z,0
2017-04-12T02:16:39.872Z,0
2017-04-12T02:18:02.317Z,0
2017-04-12T02:19:24.574Z,0
2017-04-12T02:20:46.524Z,0
2017-04-12T02:22:08.680Z,0
2017-04-12T02:23:30.478Z,0
2017-04-12T02:24:52.001Z,0
2017-04-12T02:26:13.306Z,0
2017-04-12T02:27:35.155Z,0
2017-04-12T02:28:57.316Z,0
2017-04-12T02:30:19.162Z,0
2017-04-12T02:31:41.299Z,0
2017-04-12T02:33:02.854Z,0
2017-04-12T02:34:25.240Z,0
2017-04-12T02:35:47.056Z,0
2017-04-12T02:37:08.886Z,0
2017-04-12T02:38:31.050Z,0
2017-04-12T02:39:53.342Z,0
2017-04-12T02:41:14.854Z,0
2017-04-12T02:42:37.054Z,0
2017-04-12T02:43:58.929Z,0
2017-04-12T02:45:21.464Z,0
2017-04-12T02:46:43.588Z,0
2017-04-12T02:48:05.871Z,0
2017-04-12T02:49:28.145Z,0
2017-04-12T02:50:49.908Z,0
2017-04-12T02:52:11.731Z,0
2017-04-12T02:53:33.995Z,0
2017-04-12T02:54:56.480Z,0
2017-04-12T02:56:19.028Z,0
2017-04-12T02:57:41.578Z,0
2017-04-12T02:59:03.185Z,0
2017-04-12T03:00:25.035Z,0
2017-04-12T03:01:47.819Z,0
2017-04-12T03:03:10.038Z,0
2017-04-12T03:04:31.239Z,0
2017-04-12T03:05:53.562Z,0
2017-04-12T03:07:15.638Z,0
2017-04-12T03:08:37.486Z,0
2017-04-12T03:09:59.630Z,0
2017-04-12T03:11:22.111Z,0
2017-04-12T03:12:43.969Z,0
2017-04-12T03:14:05.898Z,0
2017-04-12T03:15:27.822Z,0
2017-04-12T03:16:49.317Z,0
2017-04-12T03:18:11.609Z,0
2017-04-12T03:19:33.854Z,0
2017-04-12T03:20:56.047Z,0
2017-04-12T03:22:17.476Z,0
2017-04-12T03:23:39.388Z,0
2017-04-12T03:25:01.279Z,0
2017-04-12T03:26:23.515Z,0
2017-04-12T03:27:45.345Z,0
2017-04-12T03:29:07.116Z,0
2017-04-12T03:30:28.303Z,0
2017-04-12T03:31:49.903Z,0
2017-04-12T03:33:11.722Z,0
2017-04-12T03:34:34.158Z,0
2017-04-12T03:35:55.981Z,0
2017-04-12T03:37:17.814Z,0
2017-04-12T03:38:40.376Z,0
2017-04-12T03:40:02.449Z,0
2017-04-12T03:41:23.951Z,0
2017-04-12T03:42:46.119Z,0
2017-04-12T03:44:07.330Z,0
2017-04-12T03:45:29.511Z,0
2017-04-12T03:46:50.687Z,0
2017-04-12T03:48:11.861Z,0
2017-04-12T03:49:33.363Z,0
2017-04-12T03:50:55.518Z,0
2017-04-12T03:52:17.689Z,0
2017-04-12T03:53:39.851Z,0
2017-04-12T03:55:01.724Z,0
2017-04-12T03:56:23.854Z,0
2017-04-12T03:57:46.324Z,0
2017-04-12T03:59:08.132Z,0
2017-04-12T04:00:29.957Z,0
2017-04-12T04:01:52.370Z,0
2017-04-12T04:03:14.099Z,0
2017-04-12T04:04:35.606Z,0
2017-04-12T04:05:57.441Z,0
2017-04-12T04:07:19.248Z,0
2017-04-12T04:08:41.391Z,0
2017-04-12T04:10:03.217Z,0
2017-04-12T04:11:25.038Z,0
2017-04-12T04:12:47.119Z,0
2017-04-12T04:14:09.256Z,0
2017-04-12T04:15:31.145Z,0
2017-04-12T04:16:53.459Z,0
2017-04-12T04:18:15.607Z,0
2017-04-12T04:19:37.407Z,0
2017-04-12T04:20:58.905Z,0
2017-04-12T04:22:20.426Z,0
2017-04-12T04:23:42.490Z,0
2017-04-12T04:25:05.008Z,0
2017-04-12T04:26:26.604Z,0
2017-04-12T04:27:48.543Z,0
2017-04-12T04:29:10.937Z,0
2017-04-12T04:30:32.772Z,5
2017-04-12T04:31:54.618Z,5
2017-04-12T04:33:15.846Z,5
2017-04-12T04:34:37.598Z,5
2017-04-12T04:35:59.106Z,5
2017-04-12T04:37:20.988Z,5
2017-04-12T04:38:42.519Z,5
2017-04-12T04:40:04.578Z,5
2017-04-12T04:41:27.167Z,5
2017-04-12T04:42:48.972Z,5
2017-04-12T04:44:11.424Z,5
2017-04-12T04:45:33.506Z,5
2017-04-12T04:46:55.420Z,5
2017-04-12T04:48:17.351Z,10
2017-04-12T04:49:39.229Z,15
2017-04-12T04:51:01.330Z,15
2017-04-12T04:52:23.156Z,20
2017-04-12T04:53:45.036Z,20
2017-04-12T04:55:07.616Z,20
2017-04-12T04:56:29.833Z,15
2017-04-12T04:57:52.028Z,10
2017-04-12T04:59:13.544Z,10
2017-04-12T05:00:35.364Z,15
2017-04-12T05:01:57.127Z,15
2017-04-12T05:03:18.968Z,10
2017-04-12T05:04:40.767Z,15
2017-04-12T05:06:02.279Z,15
2017-04-12T05:07:24.431Z,20
2017-04-12T05:08:45.639Z,25
2017-04-12T05:10:08.216Z,20
2017-04-12T05:11:30.388Z,20
2017-04-12T05:12:52.467Z,25
2017-04-12T05:14:14.643Z,20
2017-04-12T05:15:36.519Z,35
2017-04-12T05:16:59.146Z,45
2017-04-12T05:18:21.399Z,45
2017-04-12T05:19:43.931Z,50
2017-04-12T05:21:05.796Z,50
2017-04-12T05:22:27.616Z,50
2017-04-12T05:23:50.008Z,50
2017-04-12T05:25:11.854Z,50
2017-04-12T05:26:34.027Z,55
2017-04-12T05:27:56.210Z,60
2017-04-12T05:29:18.079Z,60
2017-04-12T05:30:40.218Z,60
2017-04-12T05:32:01.709Z,60
2017-04-12T05:33:23.546Z,60
2017-04-12T05:34:45.348Z,60
2017-04-12T05:36:07.917Z,60
2017-04-12T05:37:29.853Z,55
2017-04-12T05:38:52.006Z,60
2017-04-12T05:40:14.051Z,65
2017-04-12T05:41:36.198Z,65
2017-04-12T05:42:58.026Z,65
2017-04-12T05:44:20.188Z,75
2017-04-12T05:45:41.999Z,80
2017-04-12T05:47:03.837Z,85
2017-04-12T05:48:25.662Z,85
2017-04-12T05:49:47.807Z,95
2017-04-12T05:51:09.995Z,90
2017-04-12T05:52:32.705Z,90
2017-04-12T05:53:54.348Z,95
2017-04-12T05:55:16.281Z,95
2017-04-12T05:56:38.068Z,90
2017-04-12T05:58:00.511Z,90
2017-04-12T05:59:22.648Z,100
2017-04-12T06:00:45.140Z,105
2017-04-12T06:02:07.214Z,110
2017-04-12T06:03:29.037Z,115
2017-04-12T06:04:50.558Z,115
2017-04-12T06:06:12.369Z,105
2017-04-12T06:07:34.496Z,125
2017-04-12T06:08:56.333Z,140
2017-04-12T06:10:18.163Z,150
2017-04-12T06:11:39.367Z,165
2017-04-12T06:13:01.828Z,180
2017-04-12T06:14:23.338Z,175
2017-04-12T06:15:45.209Z,200
2017-04-12T06:17:07.669Z,210
2017-04-12T06:18:30.059Z,205
2017-04-12T06:19:51.679Z,210
2017-04-12T06:21:13.609Z,185
2017-04-12T06:22:35.437Z,175
2017-04-12T06:23:58.260Z,185
2017-04-12T06:25:20.201Z,200
2017-04-12T06:26:42.058Z,205
2017-04-12T06:28:04.203Z,230
2017-04-12T06:29:26.060Z,240
2017-04-12T06:30:47.939Z,240
2017-04-12T06:32:09.470Z,270
2017-04-12T06:33:30.674Z,285
2017-04-12T06:34:53.117Z,315
2017-04-12T06:36:14.941Z,315
2017-04-12T06:37:37.298Z,280
2017-04-12T06:38:59.908Z,230
2017-04-12T06:40:22.321Z,230
2017-04-12T06:41:44.788Z,200
2017-04-12T06:43:06.306Z,175
2017-04-12T06:44:27.569Z,145
2017-04-12T06:45:49.758Z,155
2017-04-12T06:47:12.230Z,185
2017-04-12T06:48:35.075Z,195
2017-04-12T06:49:57.002Z,205
2017-04-12T06:51:19.456Z,175
2017-04-12T06:52:41.268Z,190
2017-04-12T06:54:03.538Z,190
2017-04-12T06:55:25.421Z,185
2017-04-12T06:56:47.876Z,195
2017-04-12T06:58:09.829Z,180
2017-04-12T06:59:31.731Z,205
2017-04-12T07:00:53.573Z,185
2017-04-12T07:02:16.429Z,130
2017-04-12T07:03:38.347Z,160
2017-04-12T07:04:59.892Z,195
2017-04-12T07:06:21.779Z,155
2017-04-12T07:07:44.628Z,195
2017-04-12T07:09:06.476Z,210
2017-04-12T07:10:28.309Z,175
2017-04-12T07:11:50.467Z,215
2017-04-12T07:13:13.279Z,225
2017-04-12T07:14:35.151Z,185
2017-04-12T07:15:57.079Z,165
2017-04-12T07:17:19.279Z,200
2017-04-12T07:18:41.585Z,195
2017-04-12T07:20:03.448Z,135
2017-04-12T07:21:25.623Z,115
2017-04-12T07:22:48.229Z,130
2017-04-12T07:24:11.064Z,160
2017-04-12T07:25:33.647Z,135
2017-04-12T07:26:55.627Z,140
2017-04-12T07:28:16.861Z,170
2017-04-12T07:29:39.609Z,180
2017-04-12T07:31:00.806Z,195
2017-04-12T07:32:22.327Z,185
2017-04-12T07:33:44.182Z,220
2017-04-12T07:35:06.258Z,230
2017-04-12T07:36:28.109Z,225
2017-04-12T07:37:50.595Z,225
2017-04-12T07:39:12.105Z,185
2017-04-12T07:40:34.248Z,165
2017-04-12T07:41:56.442Z,165
2017-04-12T07:43:18.269Z,180
2017-04-12T07:44:40.791Z,165
2017-04-12T07:46:03.296Z,140
2017-04-12T07:47:25.471Z,135
2017-04-12T07:48:47.945Z,145
2017-04-12T07:50:10.089Z,155
2017-04-12T07:51:32.639Z,150
2017-04-12T07:52:54.858Z,160
2017-04-12T07:54:17.330Z,130
2017-04-12T07:55:39.797Z,130
2017-04-12T07:57:01.617Z,155
2017-04-12T07:58:23.802Z,155
2017-04-12T07:59:45.951Z,150
2017-04-12T08:01:07.767Z,175
2017-04-12T08:02:30.010Z,190
2017-04-12T08:03:52.486Z,200
2017-04-12T08:05:15.078Z,200
2017-04-12T08:06:37.218Z,200
2017-04-12T08:07:59.347Z,220
2017-04-12T08:09:21.567Z,190
2017-04-12T08:10:43.386Z,175
2017-04-12T08:12:05.539Z,170
2017-04-12T08:13:27.687Z,195
2017-04-12T08:14:49.519Z,215
2017-04-12T08:16:11.768Z,220
2017-04-12T08:17:34.260Z,230
2017-04-12T08:18:56.955Z,260
2017-04-12T08:20:18.781Z,270
2017-04-12T08:21:40.920Z,300
2017-04-12T08:23:03.115Z,245
2017-04-12T08:24:25.236Z,260
2017-04-12T08:25:47.082Z,225
2017-04-12T08:27:08.938Z,225
2017-04-12T08:28:31.127Z,235
2017-04-12T08:29:53.950Z,190
2017-04-12T08:31:15.780Z,155
2017-04-12T08:32:37.937Z,185
2017-04-12T08:34:00.228Z,155
2017-04-12T08:35:23.010Z,175
2017-04-12T08:36:45.273Z,160
2017-04-12T08:38:06.797Z,135
2017-04-12T08:39:28.975Z,120
2017-04-12T08:40:51.367Z,145
2017-04-12T08:42:13.278Z,125
2017-04-12T08:43:35.173Z,130
2017-04-12T08:44:57.347Z,130
2017-04-12T08:46:19.917Z,155
2017-04-12T08:47:42.075Z,160
2017-04-12T08:49:03.282Z,195
2017-04-12T08:50:25.437Z,230
2017-04-12T08:51:47.628Z,245
2017-04-12T08:53:09.848Z,230
2017-04-12T08:54:32.307Z,225
2017-04-12T08:55:54.498Z,225
2017-04-12T08:57:16.579Z,245
2017-04-12T08:58:38.404Z,250
2017-04-12T09:00:00.637Z,255
2017-04-12T09:01:22.523Z,180
2017-04-12T09:02:45.252Z,145
2017-04-12T09:04:07.162Z,200
2017-04-12T09:05:28.697Z,215
2017-04-12T09:06:50.236Z,225
2017-04-12T09:08:12.637Z,180
2017-04-12T09:09:34.796Z,155
2017-04-12T09:10:56.637Z,145
2017-04-12T09:12:18.139Z,280
2017-04-12T09:13:40.546Z,285
2017-04-12T09:15:02.394Z,280
2017-04-12T09:16:24.283Z,200
2017-04-12T09:17:46.458Z,160
2017-04-12T09:19:09.298Z,220
2017-04-12T09:20:31.449Z,210
2017-04-12T09:21:53.628Z,215
2017-04-12T09:23:15.787Z,230
2017-04-12T09:24:37.876Z,240
2017-04-12T09:26:00.133Z,230
2017-04-12T09:27:22.646Z,170
2017-04-12T09:28:45.146Z,150
2017-04-12T09:30:07.986Z,150
2017-04-12T09:31:30.441Z,120
2017-04-12T09:32:52.647Z,165
2017-04-12T09:34:14.847Z,180
2017-04-12T09:35:36.808Z,205
2017-04-12T09:36:58.946Z,185
2017-04-12T09:38:20.793Z,230
2017-04-12T09:39:42.937Z,225
2017-04-12T09:41:04.834Z,265
2017-04-12T09:42:26.379Z,220
2017-04-12T09:43:48.849Z,150
2017-04-12T09:45:11.313Z,140
2017-04-12T09:46:33.568Z,125
2017-04-12T09:47:55.726Z,120
2017-04-12T09:49:16.906Z,155
2017-04-12T09:50:39.069Z,170
2017-04-12T09:52:01.829Z,165
2017-04-12T09:53:23.992Z,120
2017-04-12T09:54:45.888Z,120
2017-04-12T09:56:08.361Z,140
2017-04-12T09:57:30.929Z,180
2017-04-12T09:58:52.131Z,145
2017-04-12T10:00:14.639Z,210
2017-04-12T10:01:35.859Z,275
2017-04-12T10:02:58.287Z,325
2017-04-12T10:04:20.415Z,230
2017-04-12T10:05:42.610Z,185
2017-04-12T10:07:05.400Z,230
2017-04-12T10:08:27.835Z,320
2017-04-12T10:09:49.336Z,320
2017-04-12T10:11:10.853Z,330
2017-04-12T10:12:32.686Z,235
2017-04-12T10:13:54.209Z,245
2017-04-12T10:15:16.369Z,240
2017-04-12T10:16:38.580Z,165
2017-04-12T10:18:00.405Z,135
2017-04-12T10:19:22.865Z,105
2017-04-12T10:20:45.346Z,105
2017-04-12T10:22:07.214Z,140
2017-04-12T10:23:29.356Z,125
2017-04-12T10:24:51.868Z,110
2017-04-12T10:26:13.767Z,95
2017-04-12T10:27:35.288Z,105
2017-04-12T10:28:56.840Z,115
2017-04-12T10:30:18.977Z,120
2017-04-12T10:31:41.433Z,115
2017-04-12T10:33:02.957Z,115
2017-04-12T10:34:24.787Z,100
2017-04-12T10:35:47.556Z,120
2017-04-12T10:37:09.116Z,135
2017-04-12T10:38:31.269Z,170
2017-04-12T10:39:53.756Z,145
2017-04-12T10:41:15.866Z,175
2017-04-12T10:42:37.696Z,180
2017-04-12T10:43:59.226Z,215
2017-04-12T10:45:20.734Z,250
2017-04-12T10:46:43.447Z,210
2017-04-12T10:48:05.285Z,180
2017-04-12T10:49:27.421Z,220
2017-04-12T10:50:49.888Z,220
2017-04-12T10:52:12.637Z,180
2017-04-12T10:53:34.786Z,155
2017-04-12T10:54:57.266Z,170
2017-04-12T10:56:19.587Z,185
2017-04-12T10:57:41.982Z,155
2017-04-12T10:59:03.499Z,130
2017-04-12T11:00:25.880Z,135
2017-04-12T11:01:48.158Z,120
2017-04-12T11:03:10.297Z,110
2017-04-12T11:04:31.811Z,130
2017-04-12T11:05:54.340Z,115
2017-04-12T11:07:16.188Z,130
2017-04-12T11:08:38.402Z,130
2017-04-12T11:10:00.846Z,135
2017-04-12T11:11:23.330Z,110
2017-04-12T11:12:45.180Z,130
2017-04-12T11:14:07.267Z,130
2017-04-12T11:15:29.436Z,105
2017-04-12T11:16:50.947Z,125
2017-04-12T11:18:13.085Z,120
2017-04-12T11:19:35.546Z,125
2017-04-12T11:20:57.679Z,115
2017-04-12T11:22:19.926Z,115
2017-04-12T11:23:42.417Z,110
2017-04-12T11:25:05.212Z,120
2017-04-12T11:26:27.787Z,120
2017-04-12T11:27:49.699Z,120
2017-04-12T11:29:12.163Z,100
2017-04-12T11:30:34.666Z,110
2017-04-12T11:31:56.839Z,115
2017-04-12T11:33:18.992Z,105
2017-04-12T11:34:41.464Z,105
2017-04-12T11:36:04.186Z,95
2017-04-12T11:37:26.045Z,100
2017-04-12T11:38:48.265Z,115
2017-04-12T11:40:10.417Z,150
2017-04-12T11:41:33.147Z,135
2017-04-12T11:42:54.996Z,130
2017-04-12T11:44:16.534Z,125
2017-04-12T11:45:38.664Z,110
2017-04-12T11:47:00.826Z,125
2017-04-12T11:48:22.345Z,135
2017-04-12T11:49:44.886Z,140
2017-04-12T11:51:06.703Z,155
2017-04-12T11:52:28.565Z,160
2017-04-12T11:53:50.737Z,160
2017-04-12T11:55:13.207Z,145
2017-04-12T11:56:35.695Z,130
2017-04-12T11:57:58.166Z,120
2017-04-12T11:59:20.654Z,110
2017-04-12T12:00:42.816Z,100
2017-04-12T12:02:04.440Z,85
2017-04-12T12:03:26.941Z,85
2017-04-12T12:04:48.794Z,75
2017-04-12T12:06:10.375Z,80
2017-04-12T12:07:32.596Z,80
2017-04-12T12:08:54.364Z,85
2017-04-12T12:10:16.526Z,80
2017-04-12T12:11:37.756Z,80
2017-04-12T12:13:00.285Z,80
2017-04-12T12:14:21.785Z,85
2017-04-12T12:15:43.626Z,90
2017-04-12T12:17:05.777Z,95
2017-04-12T12:18:27.948Z,115
2017-04-12T12:19:50.860Z,110
2017-04-12T12:21:12.757Z,105
2017-04-12T12:22:34.616Z,110
2017-04-12T12:23:56.756Z,115
2017-04-12T12:25:18.585Z,125
2017-04-12T12:26:40.716Z,135
2017-04-12T12:28:02.607Z,145
2017-04-12T12:29:24.458Z,150
2017-04-12T12:30:47.133Z,150
2017-04-12T12:32:09.648Z,145
2017-04-12T12:33:31.504Z,140
2017-04-12T12:34:54.006Z,130
2017-04-12T12:36:16.838Z,150
2017-04-12T12:37:39.008Z,160
2017-04-12T12:39:01.227Z,180
2017-04-12T12:40:23.127Z,180
2017-04-12T12:41:44.896Z,180
2017-04-12T12:43:07.049Z,175
2017-04-12T12:44:28.976Z,160
2017-04-12T12:45:50.491Z,150
2017-04-12T12:47:12.897Z,145
2017-04-12T12:48:34.786Z,150
2017-04-12T12:49:55.996Z,145
2017-04-12T12:51:17.527Z,130
2017-04-12T12:52:39.345Z,120
2017-04-12T12:54:01.507Z,120
2017-04-12T12:55:23.718Z,130
2017-04-12T12:56:45.308Z,135
2017-04-12T12:58:07.869Z,140
2017-04-12T12:59:30.079Z,135
2017-04-12T13:00:52.359Z,140
2017-04-12T13:02:14.836Z,150
2017-04-12T13:03:37.565Z,175
2017-04-12T13:04:59.089Z,195
2017-04-12T13:06:20.936Z,210
2017-04-12T13:07:42.486Z,225
2017-04-12T13:09:04.730Z,225
2017-04-12T13:10:27.227Z,200
2017-04-12T13:11:49.397Z,165
2017-04-12T13:13:11.269Z,140
2017-04-12T13:14:33.731Z,125
2017-04-12T13:15:55.785Z,125
2017-04-12T13:17:17.397Z,120
2017-04-12T13:18:39.309Z,105
2017-04-12T13:20:01.726Z,100
2017-04-12T13:21:23.997Z,110
2017-04-12T13:22:46.536Z,110
2017-04-12T13:24:08.740Z,110
2017-04-12T13:25:30.854Z,115
2017-04-12T13:26:53.403Z,110
2017-04-12T13:28:15.586Z,130
2017-04-12T13:29:37.437Z,130
2017-04-12T13:30:59.587Z,135
2017-04-12T13:32:22.068Z,135
2017-04-12T13:33:44.704Z,135
2017-04-12T13:35:07.318Z,135
2017-04-12T13:36:30.127Z,150
2017-04-12T13:37:51.989Z,150
2017-04-12T13:39:13.944Z,145
2017-04-12T13:40:36.120Z,130
2017-04-12T13:41:58.894Z,125
2017-04-12T13:43:19.829Z,130
2017-04-12T13:44:41.360Z,120
2017-04-12T13:46:03.538Z,130
2017-04-12T13:47:26.021Z,130
2017-04-12T13:48:48.173Z,130
2017-04-12T13:50:10.337Z,120
2017-04-12T13:51:32.282Z,105
2017-04-12T13:52:54.387Z,95
2017-04-12T13:54:16.604Z,85
2017-04-12T13:55:38.148Z,85
2017-04-12T13:57:00.138Z,90
2017-04-12T13:58:22.540Z,100
2017-04-12T13:59:44.716Z,120
2017-04-12T14:01:06.592Z,120
2017-04-12T14:02:28.791Z,120
2017-04-12T14:03:51.530Z,130
2017-04-12T14:05:13.694Z,155
2017-04-12T14:06:35.416Z,170
2017-04-12T14:07:57.288Z,160
2017-04-12T14:09:19.383Z,160
2017-04-12T14:10:41.569Z,145
2017-04-12T14:12:03.717Z,145
2017-04-12T14:13:26.307Z,130
2017-04-12T14:14:49.088Z,140
2017-04-12T14:16:11.578Z,130
2017-04-12T14:17:33.750Z,115
2017-04-12T14:18:55.948Z,125
2017-04-12T14:20:18.238Z,120
2017-04-12T14:21:40.798Z,130
2017-04-12T14:23:02.977Z,150
2017-04-12T14:24:25.128Z,140
2017-04-12T14:25:47.889Z,150
2017-04-12T14:27:09.722Z,155
2017-04-12T14:28:32.012Z,155
2017-04-12T14:29:54.059Z,170
2017-04-12T14:31:16.858Z,195
2017-04-12T14:32:39.363Z,195
2017-04-12T14:34:01.828Z,200
2017-04-12T14:35:24.342Z,195
2017-04-12T14:36:46.905Z,175
2017-04-12T14:38:08.809Z,165
2017-04-12T14:39:30.638Z,150
2017-04-12T14:40:52.818Z,170
2017-04-12T14:42:15.117Z,185
2017-04-12T14:43:36.962Z,160
2017-04-12T14:44:58.921Z,175
2017-04-12T14:46:21.134Z,155
2017-04-12T14:47:43.580Z,160
2017-04-12T14:49:05.748Z,180
2017-04-12T14:50:28.228Z,180
2017-04-12T14:51:50.501Z,165
2017-04-12T14:53:13.310Z,165
2017-04-12T14:54:35.529Z,165
2017-04-12T14:55:57.731Z,175
2017-04-12T14:57:19.913Z,160
2017-04-12T14:58:42.389Z,155
2017-04-12T15:00:04.325Z,140
2017-04-12T15:01:26.198Z,140
2017-04-12T15:02:48.680Z,155
2017-04-12T15:04:11.016Z,155
2017-04-12T15:05:33.197Z,160
2017-04-12T15:06:55.720Z,150
2017-04-12T15:08:18.208Z,165
2017-04-12T15:09:40.678Z,145
2017-04-12T15:11:02.321Z,170
2017-04-12T15:12:24.825Z,200
2017-04-12T15:13:46.557Z,215
2017-04-12T15:15:08.668Z,215
2017-04-12T15:16:30.578Z,215
2017-04-12T15:17:52.740Z,220
2017-04-12T15:19:15.244Z,180
2017-04-12T15:20:36.807Z,150
2017-04-12T15:21:58.828Z,180
2017-04-12T15:23:21.016Z,150
2017-04-12T15:24:42.699Z,150
2017-04-12T15:26:04.555Z,165
2017-04-12T15:27:27.202Z,160
2017-04-12T15:28:49.360Z,175
2017-04-12T15:30:11.837Z,190
2017-04-12T15:31:34.457Z,205
2017-04-12T15:32:56.301Z,225
2017-04-12T15:34:18.868Z,225
2017-04-12T15:35:41.395Z,250
2017-04-12T15:37:03.547Z,255
2017-04-12T15:38:25.386Z,255
2017-04-12T15:39:47.557Z,235
2017-04-12T15:41:10.070Z,190
2017-04-12T15:42:32.604Z,155
2017-04-12T15:43:54.885Z,150
2017-04-12T15:45:16.797Z,100
2017-04-12T15:46:38.995Z,100
2017-04-12T15:48:01.839Z,70
2017-04-12T15:49:24.427Z,65
2017-04-12T15:50:46.609Z,75
2017-04-12T15:52:08.809Z,60
2017-04-12T15:53:31.294Z,65
2017-04-12T15:54:53.796Z,95
2017-04-12T15:56:15.646Z,70
2017-04-12T15:57:37.504Z,70
2017-04-12T15:59:00.228Z,95
2017-04-12T16:00:22.766Z,80
2017-04-12T16:01:45.251Z,80
2017-04-12T16:03:07.434Z,65
2017-04-12T16:04:29.999Z,65
2017-04-12T16:05:52.172Z,60
2017-04-12T16:07:13.707Z,75
2017-04-12T16:08:35.554Z,60
2017-04-12T16:09:57.727Z,70
2017-04-12T16:11:19.658Z,60
2017-04-12T16:12:42.180Z,45
2017-04-12T16:14:04.345Z,50
2017-04-12T16:15:26.146Z,45
2017-04-12T16:16:48.001Z,60
2017-04-12T16:18:09.969Z,60
2017-04-12T16:19:31.522Z,60
2017-04-12T16:20:54.312Z,90
2017-04-12T16:22:16.612Z,95
2017-04-12T16:23:38.792Z,85
2017-04-12T16:25:00.948Z,60
2017-04-12T16:26:23.099Z,105
2017-04-12T16:27:45.669Z,100
2017-04-12T16:29:08.278Z,95
2017-04-12T16:30:30.796Z,115
2017-04-12T16:31:52.299Z,95
2017-04-12T16:33:15.065Z,110
2017-04-12T16:34:37.277Z,100
2017-04-12T16:35:59.262Z,100
2017-04-12T16:37:21.759Z,100
2017-04-12T16:38:43.587Z,75
2017-04-12T16:40:06.165Z,80
2017-04-12T16:41:28.665Z,80
2017-04-12T16:42:50.799Z,80
2017-04-12T16:44:13.286Z,65
2017-04-12T16:45:35.885Z,40
2017-04-12T16:46:58.387Z,35
2017-04-12T16:48:21.040Z,30
2017-04-12T16:49:43.228Z,25
2017-04-12T16:51:05.146Z,20
2017-04-12T16:52:27.638Z,45
2017-04-12T16:53:49.432Z,45
2017-04-12T16:55:11.587Z,40
2017-04-12T16:56:33.810Z,40
2017-04-12T16:57:56.327Z,40
2017-04-12T16:59:18.938Z,35
2017-04-12T17:00:41.607Z,50
2017-04-12T17:02:03.556Z,30
2017-04-12T17:03:25.728Z,20
2017-04-12T17:04:48.517Z,15
2017-04-12T17:06:10.573Z,15
2017-04-12T17:07:32.820Z,20
2017-04-12T17:08:55.062Z,15
2017-04-12T17:10:17.797Z,10
2017-04-12T17:11:40.029Z,20
2017-04-12T17:13:02.559Z,25
2017-04-12T17:14:24.749Z,20
2017-04-12T17:15:46.931Z,15
2017-04-12T17:17:09.513Z,10
2017-04-12T17:18:31.385Z,10
2017-04-12T17:19:53.569Z,10
2017-04-12T17:21:16.056Z,5
2017-04-12T17:22:38.546Z,10
2017-04-12T17:24:00.929Z,20
2017-04-12T17:25:23.361Z,10
2017-04-12T17:26:45.900Z,10
2017-04-12T17:28:08.076Z,5
2017-04-12T17:29:29.985Z,5
2017-04-12T17:30:52.520Z,5
2017-04-12T17:32:15.367Z,5
2017-04-12T17:33:37.626Z,5
2017-04-12T17:35:00.239Z,15
2017-04-12T17:36:22.701Z,25
2017-04-12T17:37:45.219Z,30
2017-04-12T17:39:07.405Z,30
2017-04-12T17:40:29.610Z,20
2017-04-12T17:41:51.778Z,15
2017-04-12T17:43:14.348Z,10
2017-04-12T17:44:36.836Z,10
2017-04-12T17:45:59.006Z,15
2017-04-12T17:47:21.191Z,5
2017-04-12T17:48:44.024Z,5
2017-04-12T17:50:06.347Z,10
2017-04-12T17:51:29.018Z,10
2017-04-12T17:52:51.243Z,15
2017-04-12T17:54:14.057Z,15
2017-04-12T17:55:36.597Z,15
2017-04-12T17:56:58.453Z,15
2017-04-12T17:58:20.928Z,15
2017-04-12T17:59:43.117Z,15
2017-04-12T18:01:04.977Z,10
2017-04-12T18:02:26.865Z,10
2017-04-12T18:03:48.818Z,10
2017-04-12T18:05:11.247Z,5
2017-04-12T18:06:33.451Z,5
2017-04-12T18:07:55.296Z,5
2017-04-12T18:09:17.500Z,5
2017-04-12T18:10:40.018Z,5
2017-04-12T18:12:02.212Z,5
2017-04-12T18:13:24.799Z,10
2017-04-12T18:14:46.759Z,10
2017-04-12T18:16:09.514Z,5
2017-04-12T18:17:31.836Z,5
2017-04-12T18:18:54.141Z,0
2017-04-12T18:20:16.489Z,0
2017-04-12T18:21:39.887Z,0
2017-04-12T18:23:02.278Z,0
2017-04-12T18:24:24.766Z,0
2017-04-12T18:25:47.014Z,0
2017-04-12T18:27:09.480Z,0
2017-04-12T18:28:31.967Z,0
2017-04-12T18:29:54.485Z,0
2017-04-12T18:31:16.664Z,0
2017-04-12T18:32:39.156Z,0
2017-04-12T18:34:01.378Z,0
2017-04-12T18:35:23.878Z,0
2017-04-12T18:36:46.376Z,0
2017-04-12T18:38:08.889Z,0
2017-04-12T18:39:31.126Z,0
2017-04-12T18:40:53.389Z,0
2017-04-12T18:42:15.658Z,0
2017-04-12T18:43:37.796Z,0
2017-04-12T18:45:00.327Z,0
2017-04-12T18:46:22.519Z,0
2017-04-12T18:47:45.011Z,0
2017-04-12T18:49:07.473Z,0
2017-04-12T18:50:29.677Z,0
2017-04-12T18:51:52.194Z,0
2017-04-12T18:53:14.438Z,0
2017-04-12T18:54:37.190Z,0
2017-04-12T18:55:59.687Z,0
2017-04-12T18:57:21.910Z,0
2017-04-12T18:58:44.406Z,0
2017-04-12T19:00:07.150Z,0
2017-04-12T19:01:29.666Z,0
2017-04-12T19:02:51.885Z,0
2017-04-12T19:04:14.123Z,0
2017-04-12T19:05:36.990Z,0
2017-04-12T19:06:58.609Z,0
2017-04-12T19:08:21.156Z,0
2017-04-12T19:09:43.668Z,0
2017-04-12T19:11:06.507Z,0
2017-04-12T19:12:29.016Z,0
2017-04-12T19:13:51.247Z,0
2017-04-12T19:15:13.836Z,0
2017-04-12T19:16:36.834Z,0
2017-04-12T19:17:58.992Z,0
2017-04-12T19:19:21.297Z,0
2017-04-12T19:20:43.486Z,0
2017-04-12T19:22:05.666Z,0
2017-04-12T19:23:28.436Z,0